| time (UTC) | temp C | wind direction | speed KPH | gust KPH | rain 1hr cm | rain 24hr cm | rain mn cm | humidity % | barometer mb |
| 20260906090842 | 28 | 61 | 11.3 | 20.9 | 0.00 | 0.00 | 0.00 | 50 | 1020.4 |
| 20260906090412 | 28 | 43 | 6.4 | 17.7 | 0.00 | 0.00 | 0.00 | 50 | 1020.4 |
| 20260906085820 | 28 | 49 | 9.7 | 17.7 | 0.00 | 0.00 | 0.00 | 49 | 1020.4 |
| 20260906085338 | 28 | 29 | 6.4 | 19.3 | 0.00 | 0.00 | 0.00 | 50 | 1020.4 |
| 20260906084835 | 28 | 84 | 9.7 | 19.3 | 0.00 | 0.00 | 0.00 | 50 | 1020.4 |
| 20260906084323 | 28 | 41 | 8.0 | 17.7 | 0.00 | 0.00 | 0.00 | 51 | 1020.4 |
| 20260906083905 | 28 | 40 | 9.7 | 20.9 | 0.00 | 0.00 | 0.00 | 51 | 1020.4 |
| 20260906082911 | 28 | 72 | 8.0 | 16.1 | 0.00 | 0.00 | 0.00 | 52 | 1020.2 |
| 20260906082343 | 28 | 55 | 12.9 | 24.1 | 0.00 | 0.00 | 0.00 | 51 | 1020.2 |
| 20260906081914 | 27 | 73 | 14.5 | 24.1 | 0.00 | 0.00 | 0.00 | 51 | 1020.2 |
| 20260906081423 | 27 | 74 | 9.7 | 22.5 | 0.00 | 0.00 | 0.00 | 52 | 1020.1 |
| 20260906080834 | 28 | 50 | 6.4 | 19.3 | 0.00 | 0.00 | 0.00 | 53 | 1020.1 |
| 20260906080347 | 27 | 73 | 8.0 | 19.3 | 0.00 | 0.00 | 0.00 | 54 | 1020.1 |
| 20260906075910 | 27 | 68 | 11.3 | 19.3 | 0.00 | 0.00 | 0.00 | 54 | 1020.1 |
| 20260906075320 | 27 | 61 | 8.0 | 19.3 | 0.00 | 0.00 | 0.00 | 55 | 1020.1 |
| 20260906074854 | 27 | 59 | 6.4 | 19.3 | 0.00 | 0.00 | 0.00 | 56 | 1020.1 |
| 20260906074354 | 27 | 42 | 11.3 | 19.3 | 0.00 | 0.00 | 0.00 | 56 | 1019.9 |
| 20260906073854 | 27 | 41 | 8.0 | 16.1 | 0.00 | 0.00 | 0.00 | 57 | 1019.9 |
| 20260906073344 | 26 | 62 | 8.0 | 19.3 | 0.00 | 0.00 | 0.00 | 58 | 1019.9 |
| 20260906072946 | 26 | 74 | 11.3 | 19.3 | 0.00 | 0.00 | 0.00 | 58 | 1019.9 |
| 20260906072334 | 26 | 65 | 11.3 | 17.7 | 0.00 | 0.00 | 0.00 | 59 | 1019.9 |
| 20260906071920 | 26 | 68 | 11.3 | 19.3 | 0.00 | 0.00 | 0.00 | 60 | 1019.9 |
| 20260906071331 | 26 | 52 | 9.7 | 19.3 | 0.00 | 0.00 | 0.00 | 62 | 1019.9 |
| 20260906070846 | 26 | 40 | 6.4 | 16.1 | 0.00 | 0.00 | 0.00 | 63 | 1019.9 |
| 20260906070323 | 25 | 45 | 9.7 | 19.3 | 0.00 | 0.00 | 0.00 | 63 | 1019.9 |
| 20260906065831 | 25 | 43 | 8.0 | 19.3 | 0.00 | 0.00 | 0.00 | 65 | 1019.8 |
| 20260906065353 | 25 | 38 | 9.7 | 17.7 | 0.00 | 0.00 | 0.00 | 66 | 1019.8 |
| 20260906064820 | 25 | 49 | 11.3 | 16.1 | 0.00 | 0.00 | 0.00 | 66 | 1019.8 |
| 20260906064334 | 25 | 37 | 9.7 | 14.5 | 0.00 | 0.00 | 0.00 | 67 | 1019.7 |
| 20260906063918 | 25 | 45 | 4.8 | 14.5 | 0.00 | 0.00 | 0.00 | 68 | 1019.7 |
| 20260906063329 | 25 | 39 | 6.4 | 14.5 | 0.00 | 0.00 | 0.00 | 68 | 1019.7 |
| 20260906062847 | 24 | 31 | 6.4 | 12.9 | 0.00 | 0.00 | 0.00 | 69 | 1019.4 |
| 20260906062409 | 24 | 36 | 8.0 | 14.5 | 0.00 | 0.00 | 0.00 | 69 | 1019.4 |
| 20260906061840 | 24 | 38 | 0.0 | 0.0 | 0.00 | 0.00 | 0.00 | 69 | 1019.4 |
| 20260906061337 | 24 | 49 | 0.0 | 0.0 | 0.00 | 0.00 | 0.00 | 70 | 1019.4 |
| 20260906060940 | 23 | 50 | 0.0 | 0.0 | 0.00 | 0.00 | 0.00 | 70 | 1019.4 |
| 20260906060331 | 23 | 50 | 0.0 | 0.0 | 0.00 | 0.00 | 0.00 | 70 | 1019.4 |
| 20260906055840 | 23 | 53 | 0.0 | 0.0 | 0.00 | 0.00 | 0.00 | 70 | 1019.1 |
| 20260906055352 | 23 | 55 | 0.0 | 0.0 | 0.00 | 0.00 | 0.00 | 71 | 1019.1 |
| 20260906054839 | 23 | 56 | 0.0 | 0.0 | 0.00 | 0.00 | 0.00 | 71 | 1019.1 |
| 20260906054406 | 23 | 63 | 0.0 | 0.0 | 0.00 | 0.00 | 0.00 | 72 | 1018.9 |
| 20260906053831 | 23 | 63 | 0.0 | 0.0 | 0.00 | 0.00 | 0.00 | 72 | 1018.9 |
| 20260906053416 | 23 | 66 | 0.0 | 0.0 | 0.00 | 0.00 | 0.00 | 73 | 1018.9 |
| 20260906052825 | 22 | 67 | 0.0 | 0.0 | 0.00 | 0.00 | 0.00 | 74 | 1018.6 |
| 20260906052334 | 22 | 68 | 0.0 | 0.0 | 0.00 | 0.00 | 0.00 | 74 | 1018.6 |
| 20260906051832 | 22 | 72 | 0.0 | 0.0 | 0.00 | 0.00 | 0.00 | 75 | 1018.6 |
| 20260906051325 | 22 | 77 | 0.0 | 0.0 | 0.00 | 0.00 | 0.00 | 76 | 1018.5 |
| 20260906050838 | 22 | 82 | 0.0 | 0.0 | 0.00 | 0.00 | 0.00 | 76 | 1018.5 |
| 20260906050355 | 22 | 84 | 0.0 | 0.0 | 0.00 | 0.00 | 0.00 | 76 | 1018.5 |
| 20260906045824 | 22 | 86 | 0.0 | 0.0 | 0.00 | 0.00 | 0.00 | 77 | 1018.4 |
| 20260906045412 | 22 | 87 | 0.0 | 0.0 | 0.00 | 0.00 | 0.00 | 77 | 1018.4 |
| 20260906044918 | 22 | 90 | 0.0 | 0.0 | 0.00 | 0.00 | 0.00 | 77 | 1018.4 |
| 20260906044324 | 22 | 90 | 0.0 | 0.0 | 0.00 | 0.00 | 0.00 | 77 | 1018.4 |
| 20260906043827 | 22 | 90 | 0.0 | 0.0 | 0.00 | 0.00 | 0.00 | 77 | 1018.4 |
| 20260906043423 | 22 | 90 | 0.0 | 0.0 | 0.00 | 0.00 | 0.00 | 77 | 1018.4 |
| 20260906042910 | 22 | 90 | 0.0 | 0.0 | 0.00 | 0.00 | 0.00 | 77 | 1018.3 |
| 20260906042421 | 22 | 90 | 0.0 | 0.0 | 0.00 | 0.00 | 0.00 | 77 | 1018.3 |
| 20260906041338 | 22 | 90 | 0.0 | 0.0 | 0.00 | 0.00 | 0.00 | 77 | 1018.3 |
| 20260906040847 | 22 | 90 | 0.0 | 0.0 | 0.00 | 0.00 | 0.00 | 77 | 1018.3 |
| 20260906040413 | 22 | 90 | 0.0 | 0.0 | 0.00 | 0.00 | 0.00 | 77 | 1018.3 |
| 20260906035835 | 22 | 90 | 0.0 | 0.0 | 0.00 | 0.00 | 0.00 | 77 | 1018.1 |
| 20260906035323 | 22 | 92 | 0.0 | 0.0 | 0.00 | 0.00 | 0.00 | 76 | 1018.1 |
| 20260906034848 | 22 | 92 | 0.0 | 0.0 | 0.00 | 0.00 | 0.00 | 76 | 1018.1 |
| 20260906034342 | 22 | 93 | 0.0 | 0.0 | 0.00 | 0.00 | 0.00 | 76 | 1017.9 |
| 20260906033904 | 22 | 93 | 0.0 | 0.0 | 0.00 | 0.00 | 0.00 | 75 | 1017.9 |
| 20260906033333 | 22 | 94 | 0.0 | 0.0 | 0.00 | 0.00 | 0.00 | 75 | 1017.9 |
| 20260906032937 | 22 | 95 | 0.0 | 0.0 | 0.00 | 0.00 | 0.00 | 75 | 1017.9 |
| 20260906032324 | 22 | 95 | 0.0 | 0.0 | 0.00 | 0.00 | 0.00 | 76 | 1017.9 |
| 20260906031908 | 22 | 96 | 0.0 | 0.0 | 0.00 | 0.00 | 0.00 | 76 | 1017.9 |
| 20260906031407 | 22 | 97 | 0.0 | 0.0 | 0.00 | 0.00 | 0.00 | 76 | 1017.9 |
| 20260906030845 | 22 | 97 | 0.0 | 0.0 | 0.00 | 0.00 | 0.00 | 76 | 1017.9 |
| 20260906030358 | 22 | 97 | 0.0 | 0.0 | 0.00 | 0.00 | 0.00 | 75 | 1017.9 |
| 20260906025832 | 22 | 97 | 0.0 | 0.0 | 0.00 | 0.00 | 0.00 | 75 | 1017.9 |
| 20260906025343 | 22 | 97 | 0.0 | 0.0 | 0.00 | 0.00 | 0.00 | 75 | 1017.9 |
| 20260906024915 | 22 | 97 | 0.0 | 0.0 | 0.00 | 0.00 | 0.00 | 75 | 1017.9 |
| 20260906024345 | 23 | 97 | 0.0 | 0.0 | 0.00 | 0.00 | 0.00 | 75 | 1017.8 |
| 20260906023831 | 23 | 97 | 0.0 | 0.0 | 0.00 | 0.00 | 0.00 | 75 | 1017.8 |
| 20260906023348 | 23 | 97 | 0.0 | 0.0 | 0.00 | 0.00 | 0.00 | 75 | 1017.8 |
| 20260906022823 | 23 | 97 | 0.0 | 0.0 | 0.00 | 0.00 | 0.00 | 74 | 1017.8 |
| 20260906022336 | 23 | 97 | 0.0 | 0.0 | 0.00 | 0.00 | 0.00 | 74 | 1017.8 |
| 20260906021436 | 23 | 97 | 0.0 | 0.0 | 0.00 | 0.00 | 0.00 | 74 | 1017.7 |
| 20260906020857 | 23 | 97 | 0.0 | 0.0 | 0.00 | 0.00 | 0.00 | 74 | 1017.7 |
| 20260906020329 | 23 | 97 | 0.0 | 0.0 | 0.00 | 0.00 | 0.00 | 74 | 1017.7 |
| 20260906015828 | 23 | 97 | 0.0 | 0.0 | 0.00 | 0.00 | 0.00 | 75 | 1017.5 |
| 20260906015355 | 23 | 97 | 0.0 | 0.0 | 0.00 | 0.00 | 0.00 | 75 | 1017.5 |
| 20260906014834 | 23 | 98 | 0.0 | 0.0 | 0.00 | 0.00 | 0.00 | 75 | 1017.5 |
| 20260906014409 | 23 | 103 | 0.0 | 0.0 | 0.00 | 0.00 | 0.00 | 75 | 1017.5 |
| 20260906013851 | 23 | 104 | 0.0 | 0.0 | 0.00 | 0.00 | 0.00 | 75 | 1017.5 |
| 20260906013341 | 23 | 126 | 0.0 | 0.0 | 0.00 | 0.00 | 0.00 | 76 | 1017.5 |
| 20260906012820 | 23 | 127 | 0.0 | 0.0 | 0.00 | 0.00 | 0.00 | 77 | 1017.4 |
| 20260906012353 | 23 | 129 | 0.0 | 0.0 | 0.00 | 0.00 | 0.00 | 77 | 1017.4 |
| 20260906011829 | 23 | 129 | 0.0 | 0.0 | 0.00 | 0.00 | 0.00 | 77 | 1017.4 |
| 20260906011432 | 23 | 130 | 0.0 | 0.0 | 0.00 | 0.00 | 0.00 | 78 | 1017.4 |
| 20260906010827 | 23 | 131 | 0.0 | 0.0 | 0.00 | 0.00 | 0.00 | 78 | 1017.4 |
| 20260906010408 | 23 | 131 | 0.0 | 0.0 | 0.00 | 0.00 | 0.00 | 78 | 1017.4 |
| 20260906005855 | 23 | 131 | 0.0 | 0.0 | 0.00 | 0.00 | 0.00 | 78 | 1017.4 |
| 20260906005404 | 23 | 132 | 0.0 | 0.0 | 0.00 | 0.00 | 0.00 | 79 | 1017.4 |
| 20260906004903 | 23 | 132 | 0.0 | 0.0 | 0.00 | 0.00 | 0.00 | 79 | 1017.4 |
| 20260906004445 | 23 | 132 | 0.0 | 0.0 | 0.00 | 0.00 | 0.00 | 80 | 1017.6 |
| 20260906003829 | 23 | 133 | 0.0 | 0.0 | 0.00 | 0.00 | 0.00 | 80 | 1017.6 |
| 20260906003406 | 23 | 133 | 0.0 | 0.0 | 0.00 | 0.00 | 0.00 | 81 | 1017.6 |
| 20260906002836 | 23 | 133 | 0.0 | 0.0 | 0.00 | 0.00 | 0.00 | 82 | 1017.5 |
| 20260906002347 | 23 | 133 | 0.0 | 0.0 | 0.00 | 0.00 | 0.00 | 83 | 1017.5 |
| 20260906001856 | 23 | 133 | 0.0 | 0.0 | 0.00 | 0.00 | 0.00 | 83 | 1017.5 |
| 20260906001322 | 23 | 133 | 0.0 | 0.0 | 0.00 | 0.00 | 0.00 | 84 | 1017.5 |
| 20260906000838 | 23 | 133 | 0.0 | 0.0 | 0.00 | 0.00 | 0.00 | 85 | 1017.5 |
| 20260906000333 | 23 | 133 | 0.0 | 0.0 | 0.00 | 0.00 | 0.00 | 85 | 1017.5 |
| 20260905235921 | 23 | 133 | 0.0 | 0.0 | 0.00 | 0.00 | 0.00 | 85 | 1017.4 |
| 20260905235413 | 23 | 133 | 0.0 | 0.0 | 0.00 | 0.00 | 0.00 | 85 | 1017.4 |
| 20260905234825 | 23 | 133 | 0.0 | 0.0 | 0.00 | 0.00 | 0.00 | 85 | 1017.4 |
| 20260905234336 | 23 | 133 | 0.0 | 0.0 | 0.00 | 0.00 | 0.00 | 86 | 1017.3 |
| 20260905233844 | 23 | 133 | 0.0 | 0.0 | 0.00 | 0.00 | 0.00 | 86 | 1017.3 |
| 20260905233346 | 23 | 133 | 0.0 | 0.0 | 0.00 | 0.00 | 0.00 | 86 | 1017.3 |
| 20260905232843 | 23 | 133 | 0.0 | 0.0 | 0.00 | 0.00 | 0.00 | 86 | 1017.3 |
| 20260905232345 | 23 | 134 | 0.0 | 0.0 | 0.00 | 0.00 | 0.00 | 86 | 1017.3 |
| 20260905231834 | 23 | 134 | 0.0 | 0.0 | 0.00 | 0.00 | 0.00 | 86 | 1017.3 |
| 20260905231344 | 24 | 134 | 0.0 | 0.0 | 0.00 | 0.00 | 0.00 | 87 | 1017.3 |
| 20260905230919 | 24 | 134 | 0.0 | 0.0 | 0.00 | 0.00 | 0.00 | 87 | 1017.3 |
| 20260905230336 | 24 | 143 | 0.0 | 0.0 | 0.00 | 0.00 | 0.00 | 88 | 1017.3 |
| 20260905225824 | 24 | 143 | 0.0 | 0.0 | 0.00 | 0.00 | 0.00 | 88 | 1017.3 |
| 20260905225342 | 24 | 143 | 0.0 | 0.0 | 0.00 | 0.00 | 0.00 | 88 | 1017.3 |
| 20260905224833 | 24 | 143 | 0.0 | 0.0 | 0.00 | 0.00 | 0.00 | 87 | 1017.3 |
| 20260905224329 | 24 | 143 | 0.0 | 0.0 | 0.00 | 0.00 | 0.00 | 87 | 1017.3 |
| 20260905223401 | 24 | 143 | 0.0 | 0.0 | 0.00 | 0.00 | 0.00 | 87 | 1017.3 |
| 20260905222907 | 24 | 143 | 0.0 | 0.0 | 0.00 | 0.00 | 0.00 | 87 | 1017.2 |
| 20260905222349 | 25 | 143 | 0.0 | 0.0 | 0.00 | 0.00 | 0.00 | 87 | 1017.2 |
| 20260905221855 | 25 | 143 | 0.0 | 0.0 | 0.00 | 0.00 | 0.00 | 87 | 1017.2 |
| 20260905221324 | 25 | 143 | 0.0 | 0.0 | 0.00 | 0.00 | 0.00 | 86 | 1016.9 |
| 20260905220842 | 25 | 143 | 0.0 | 0.0 | 0.00 | 0.00 | 0.00 | 86 | 1016.9 |
| 20260905220400 | 25 | 143 | 0.0 | 0.0 | 0.00 | 0.00 | 0.00 | 86 | 1016.9 |
| 20260905215902 | 25 | 143 | 0.0 | 0.0 | 0.00 | 0.00 | 0.00 | 86 | 1016.7 |
| 20260905215408 | 25 | 143 | 0.0 | 0.0 | 0.00 | 0.00 | 0.00 | 86 | 1016.7 |
| 20260905214840 | 25 | 143 | 0.0 | 0.0 | 0.00 | 0.00 | 0.00 | 85 | 1016.7 |
| 20260905214416 | 25 | 143 | 0.0 | 0.0 | 0.00 | 0.00 | 0.00 | 85 | 1016.5 |
| 20260905213926 | 25 | 143 | 0.0 | 0.0 | 0.00 | 0.00 | 0.00 | 85 | 1016.5 |
| 20260905213354 | 25 | 143 | 0.0 | 0.0 | 0.00 | 0.00 | 0.00 | 85 | 1016.5 |
| 20260905212838 | 25 | 143 | 0.0 | 0.0 | 0.00 | 0.00 | 0.00 | 84 | 1016.4 |
| 20260905212325 | 25 | 143 | 0.0 | 0.0 | 0.00 | 0.00 | 0.00 | 84 | 1016.4 |
| 20260905211836 | 25 | 143 | 0.0 | 0.0 | 0.00 | 0.00 | 0.00 | 84 | 1016.4 |
| 20260905211330 | 25 | 143 | 0.0 | 0.0 | 0.00 | 0.00 | 0.00 | 83 | 1016.3 |
| 20260905210828 | 26 | 143 | 0.0 | 0.0 | 0.00 | 0.00 | 0.00 | 83 | 1016.3 |
| 20260905210328 | 26 | 143 | 0.0 | 0.0 | 0.00 | 0.00 | 0.00 | 82 | 1016.3 |
| 20260905205838 | 26 | 143 | 0.0 | 0.0 | 0.00 | 0.00 | 0.00 | 82 | 1016.3 |
| 20260905205323 | 26 | 143 | 0.0 | 0.0 | 0.00 | 0.00 | 0.00 | 81 | 1016.3 |
| 20260905204834 | 26 | 143 | 0.0 | 0.0 | 0.00 | 0.00 | 0.00 | 81 | 1016.3 |
| 20260905204341 | 26 | 143 | 0.0 | 0.0 | 0.00 | 0.00 | 0.00 | 80 | 1016.3 |
| 20260905203406 | 26 | 143 | 0.0 | 0.0 | 0.00 | 0.00 | 0.00 | 80 | 1016.3 |
| 20260905202859 | 26 | 143 | 0.0 | 0.0 | 0.00 | 0.00 | 0.00 | 80 | 1016.2 |
| 20260905202440 | 26 | 143 | 0.0 | 0.0 | 0.00 | 0.00 | 0.00 | 79 | 1016.2 |
| 20260905201853 | 26 | 143 | 0.0 | 0.0 | 0.00 | 0.00 | 0.00 | 79 | 1016.2 |
| 20260905201418 | 27 | 143 | 0.0 | 0.0 | 0.00 | 0.00 | 0.00 | 79 | 1015.9 |
| 20260905200847 | 27 | 143 | 0.0 | 0.0 | 0.00 | 0.00 | 0.00 | 78 | 1015.9 |
| 20260905200330 | 27 | 143 | 0.0 | 0.0 | 0.00 | 0.00 | 0.00 | 78 | 1015.9 |
| 20260905195914 | 27 | 143 | 0.0 | 0.0 | 0.00 | 0.00 | 0.00 | 78 | 1015.8 |
| 20260905195347 | 27 | 143 | 0.0 | 0.0 | 0.00 | 0.00 | 0.00 | 77 | 1015.8 |
| 20260905194358 | 27 | 143 | 0.0 | 0.0 | 0.00 | 0.00 | 0.00 | 77 | 1015.6 |
| 20260905193919 | 27 | 143 | 0.0 | 0.0 | 0.00 | 0.00 | 0.00 | 76 | 1015.6 |
| 20260905193408 | 27 | 143 | 0.0 | 0.0 | 0.00 | 0.00 | 0.00 | 75 | 1015.6 |
| 20260905192828 | 27 | 143 | 0.0 | 0.0 | 0.00 | 0.00 | 0.00 | 75 | 1015.3 |
| 20260905192334 | 27 | 143 | 0.0 | 0.0 | 0.00 | 0.00 | 0.00 | 75 | 1015.3 |
| 20260905191858 | 27 | 143 | 0.0 | 0.0 | 0.00 | 0.00 | 0.00 | 75 | 1015.3 |
| 20260905190907 | 28 | 143 | 0.0 | 0.0 | 0.00 | 0.00 | 0.00 | 74 | 1015.2 |
| 20260905190335 | 28 | 143 | 0.0 | 0.0 | 0.00 | 0.00 | 0.00 | 73 | 1015.2 |
| 20260905185829 | 28 | 143 | 0.0 | 0.0 | 0.00 | 0.00 | 0.00 | 73 | 1015.0 |
| 20260905185328 | 28 | 143 | 0.0 | 0.0 | 0.00 | 0.00 | 0.00 | 72 | 1015.0 |
| 20260905184929 | 28 | 143 | 0.0 | 0.0 | 0.00 | 0.00 | 0.00 | 72 | 1015.0 |
| 20260905184352 | 28 | 143 | 0.0 | 0.0 | 0.00 | 0.00 | 0.00 | 72 | 1014.7 |
| 20260905183908 | 28 | 143 | 0.0 | 0.0 | 0.00 | 0.00 | 0.00 | 71 | 1014.7 |
| 20260905183337 | 28 | 143 | 0.0 | 0.0 | 0.00 | 0.00 | 0.00 | 71 | 1014.7 |
| 20260905182851 | 28 | 143 | 0.0 | 0.0 | 0.00 | 0.00 | 0.00 | 70 | 1014.6 |
| 20260905181856 | 29 | 143 | 0.0 | 0.0 | 0.00 | 0.00 | 0.00 | 69 | 1014.6 |
| 20260905181439 | 29 | 143 | 0.0 | 0.0 | 0.00 | 0.00 | 0.00 | 69 | 1014.4 |
| 20260905180855 | 29 | 143 | 0.0 | 0.0 | 0.00 | 0.00 | 0.00 | 69 | 1014.4 |
| 20260905180333 | 29 | 143 | 0.0 | 0.0 | 0.00 | 0.00 | 0.00 | 69 | 1014.4 |
| 20260905175917 | 29 | 143 | 0.0 | 0.0 | 0.00 | 0.00 | 0.00 | 68 | 1014.2 |
| 20260905175436 | 29 | 143 | 0.0 | 0.0 | 0.00 | 0.00 | 0.00 | 69 | 1014.2 |
| 20260905174822 | 30 | 143 | 0.0 | 0.0 | 0.00 | 0.00 | 0.00 | 69 | 1014.2 |
| 20260905174349 | 30 | 143 | 0.0 | 0.0 | 0.00 | 0.00 | 0.00 | 69 | 1014.1 |
| 20260905173934 | 30 | 143 | 0.0 | 0.0 | 0.00 | 0.00 | 0.00 | 68 | 1014.1 |
| 20260905173341 | 30 | 143 | 0.0 | 6.4 | 0.00 | 0.00 | 0.00 | 68 | 1014.1 |
| 20260905172900 | 30 | 143 | 0.0 | 6.4 | 0.00 | 0.00 | 0.00 | 67 | 1013.9 |
| 20260905172402 | 30 | 143 | 0.0 | 1.6 | 0.00 | 0.00 | 0.00 | 67 | 1013.9 |
| 20260905171852 | 30 | 143 | 0.0 | 1.6 | 0.00 | 0.00 | 0.00 | 66 | 1013.9 |
| 20260905171333 | 30 | 143 | 0.0 | 1.6 | 0.00 | 0.00 | 0.00 | 66 | 1013.7 |
| 20260905170907 | 30 | 143 | 0.0 | 1.6 | 0.00 | 0.00 | 0.00 | 66 | 1013.7 |
| 20260905170351 | 30 | 143 | 0.0 | 0.0 | 0.00 | 0.00 | 0.00 | 66 | 1013.7 |
| 20260905165343 | 31 | 143 | 0.0 | 1.6 | 0.00 | 0.00 | 0.00 | 65 | 1013.7 |
| 20260905164831 | 31 | 147 | 0.0 | 0.0 | 0.00 | 0.00 | 0.00 | 64 | 1013.7 |
| 20260905164344 | 31 | 148 | 0.0 | 0.0 | 0.00 | 0.00 | 0.00 | 63 | 1013.6 |
| 20260905163826 | 31 | 148 | 0.0 | 0.0 | 0.00 | 0.00 | 0.00 | 63 | 1013.6 |
| 20260905163357 | 31 | 148 | 0.0 | 1.6 | 0.00 | 0.00 | 0.00 | 64 | 1013.6 |
| 20260905162826 | 31 | 148 | 0.0 | 0.0 | 0.00 | 0.00 | 0.00 | 63 | 1013.6 |
| 20260905162415 | 31 | 148 | 0.0 | 0.0 | 0.00 | 0.00 | 0.00 | 63 | 1013.6 |
| 20260905161827 | 31 | 148 | 0.0 | 6.4 | 0.00 | 0.00 | 0.00 | 64 | 1013.6 |
| 20260905161408 | 31 | 148 | 0.0 | 11.3 | 0.00 | 0.00 | 0.00 | 64 | 1013.5 |
| 20260905160840 | 31 | 149 | 4.8 | 11.3 | 0.00 | 0.00 | 0.00 | 63 | 1013.5 |
| 20260905160402 | 31 | 139 | 0.0 | 8.0 | 0.00 | 0.00 | 0.00 | 64 | 1013.5 |
| 20260905155917 | 31 | 139 | 4.8 | 8.0 | 0.00 | 0.00 | 0.00 | 64 | 1013.3 |
| 20260905155418 | 31 | 142 | 1.6 | 6.4 | 0.00 | 0.00 | 0.00 | 64 | 1013.3 |
| 20260905154822 | 31 | 144 | 0.0 | 8.0 | 0.00 | 0.00 | 0.00 | 64 | 1013.3 |
| 20260905154346 | 31 | 145 | 1.6 | 11.3 | 0.00 | 0.00 | 0.00 | 64 | 1013.3 |
| 20260905153918 | 31 | 143 | 6.4 | 11.3 | 0.00 | 0.00 | 0.00 | 64 | 1013.3 |
| 20260905152847 | 31 | 135 | 0.0 | 9.7 | 0.00 | 0.00 | 0.00 | 64 | 1013.2 |
| 20260905152359 | 31 | 142 | 6.4 | 9.7 | 0.00 | 0.00 | 0.00 | 64 | 1013.2 |
| 20260905151849 | 31 | 126 | 4.8 | 9.7 | 0.00 | 0.00 | 0.00 | 64 | 1013.2 |
| 20260905151331 | 31 | 165 | 4.8 | 9.7 | 0.00 | 0.00 | 0.00 | 64 | 1013.2 |
| 20260905150915 | 31 | 166 | 4.8 | 12.9 | 0.00 | 0.00 | 0.00 | 64 | 1013.2 |
| 20260905150324 | 31 | 178 | 6.4 | 12.9 | 0.00 | 0.00 | 0.00 | 64 | 1013.2 |
| 20260905145335 | 31 | 150 | 4.8 | 14.5 | 0.00 | 0.00 | 0.00 | 62 | 1013.2 |
| 20260905144825 | 32 | 149 | 4.8 | 14.5 | 0.00 | 0.00 | 0.00 | 63 | 1013.2 |
| 20260905144333 | 32 | 176 | 6.4 | 12.9 | 0.00 | 0.00 | 0.00 | 63 | 1013.2 |
| 20260905143836 | 32 | 156 | 8.0 | 12.9 | 0.00 | 0.00 | 0.00 | 62 | 1013.2 |
| 20260905143429 | 32 | 115 | 4.8 | 11.3 | 0.00 | 0.00 | 0.00 | 62 | 1013.2 |
| 20260905142923 | 32 | 129 | 0.0 | 12.9 | 0.00 | 0.00 | 0.00 | 62 | 1013.3 |
| 20260905142326 | 32 | 123 | 3.2 | 11.3 | 0.00 | 0.00 | 0.00 | 62 | 1013.3 |
| 20260905141853 | 32 | 107 | 3.2 | 11.3 | 0.00 | 0.00 | 0.00 | 62 | 1013.3 |
| 20260905141350 | 32 | 85 | 4.8 | 14.5 | 0.00 | 0.00 | 0.00 | 60 | 1013.4 |
| 20260905140825 | 33 | 110 | 1.6 | 14.5 | 0.00 | 0.00 | 0.00 | 58 | 1013.4 |
| 20260905140340 | 33 | 220 | 0.0 | 9.7 | 0.00 | 0.00 | 0.00 | 51 | 1013.4 |
| 20260905135827 | 33 | 219 | 0.0 | 8.0 | 0.00 | 0.00 | 0.00 | 52 | 1013.5 |
| 20260905135410 | 33 | 219 | 3.2 | 8.0 | 0.00 | 0.00 | 0.00 | 52 | 1013.5 |
| 20260905134906 | 33 | 205 | 1.6 | 8.0 | 0.00 | 0.00 | 0.00 | 52 | 1013.5 |
| 20260905134333 | 33 | 194 | 0.0 | 8.0 | 0.00 | 0.00 | 0.00 | 52 | 1013.4 |
| 20260905133825 | 33 | 194 | 1.6 | 11.3 | 0.00 | 0.00 | 0.00 | 53 | 1013.4 |
| 20260905133416 | 33 | 195 | 6.4 | 11.3 | 0.00 | 0.00 | 0.00 | 53 | 1013.4 |
| 20260905132850 | 33 | 155 | 0.0 | 8.0 | 0.00 | 0.00 | 0.00 | 53 | 1013.7 |
| 20260905132349 | 33 | 111 | 0.0 | 0.0 | 0.00 | 0.00 | 0.00 | 53 | 1013.7 |
| 20260905131839 | 33 | 98 | 0.0 | 0.0 | 0.00 | 0.00 | 0.00 | 53 | 1013.7 |
| 20260905131338 | 33 | 98 | 0.0 | 0.0 | 0.00 | 0.00 | 0.00 | 53 | 1013.7 |
| 20260905130829 | 33 | 97 | 0.0 | 0.0 | 0.00 | 0.00 | 0.00 | 53 | 1013.7 |
| 20260905130337 | 33 | 97 | 0.0 | 0.0 | 0.00 | 0.00 | 0.00 | 54 | 1013.7 |
| 20260905125823 | 32 | 98 | 0.0 | 0.0 | 0.00 | 0.00 | 0.00 | 55 | 1013.9 |
| 20260905125354 | 32 | 98 | 0.0 | 0.0 | 0.00 | 0.00 | 0.00 | 55 | 1013.9 |
| 20260905124824 | 32 | 98 | 0.0 | 0.0 | 0.00 | 0.00 | 0.00 | 56 | 1013.9 |
| 20260905124342 | 32 | 98 | 0.0 | 0.0 | 0.00 | 0.00 | 0.00 | 56 | 1014.1 |
| 20260905123850 | 32 | 98 | 0.0 | 0.0 | 0.00 | 0.00 | 0.00 | 55 | 1014.1 |
| 20260905123341 | 32 | 98 | 0.0 | 0.0 | 0.00 | 0.00 | 0.00 | 56 | 1014.1 |
| 20260905122830 | 32 | 114 | 0.0 | 0.0 | 0.00 | 0.00 | 0.00 | 56 | 1014.2 |
| 20260905122349 | 32 | 115 | 0.0 | 0.0 | 0.00 | 0.00 | 0.00 | 56 | 1014.2 |
| 20260905121824 | 32 | 115 | 0.0 | 0.0 | 0.00 | 0.00 | 0.00 | 56 | 1014.2 |
| 20260905121337 | 32 | 115 | 0.0 | 0.0 | 0.00 | 0.00 | 0.00 | 57 | 1014.2 |
| 20260905120832 | 32 | 115 | 0.0 | 0.0 | 0.00 | 0.00 | 0.00 | 56 | 1014.2 |
| 20260905120325 | 32 | 115 | 0.0 | 0.0 | 0.00 | 0.00 | 0.00 | 56 | 1014.2 |
| 20260905115838 | 32 | 115 | 0.0 | 0.0 | 0.00 | 0.00 | 0.00 | 56 | 1014.2 |
| 20260905115325 | 32 | 103 | 0.0 | 0.0 | 0.00 | 0.00 | 0.00 | 56 | 1014.2 |
| 20260905114832 | 32 | 103 | 0.0 | 0.0 | 0.00 | 0.00 | 0.00 | 56 | 1014.2 |
| 20260905114342 | 32 | 103 | 0.0 | 0.0 | 0.00 | 0.00 | 0.00 | 57 | 1014.2 |
| 20260905113832 | 32 | 103 | 0.0 | 0.0 | 0.00 | 0.00 | 0.00 | 58 | 1014.2 |
| 20260905113403 | 31 | 102 | 0.0 | 0.0 | 0.00 | 0.00 | 0.00 | 58 | 1014.2 |
| 20260905112858 | 31 | 97 | 0.0 | 8.0 | 0.00 | 0.00 | 0.00 | 60 | 1014.4 |
| 20260905112327 | 31 | 97 | 4.8 | 12.9 | 0.00 | 0.00 | 0.00 | 61 | 1014.4 |
| 20260905111928 | 31 | 94 | 4.8 | 12.9 | 0.00 | 0.00 | 0.00 | 61 | 1014.4 |
| 20260905111342 | 31 | 53 | 0.0 | 8.0 | 0.00 | 0.00 | 0.00 | 61 | 1014.5 |
| 20260905110838 | 30 | 53 | 0.0 | 9.7 | 0.00 | 0.00 | 0.00 | 62 | 1014.5 |
| 20260905110417 | 30 | 50 | 3.2 | 9.7 | 0.00 | 0.00 | 0.00 | 62 | 1014.5 |
| 20260905105835 | 30 | 36 | 0.0 | 9.7 | 0.00 | 0.00 | 0.00 | 62 | 1014.5 |
| 20260905105326 | 30 | 35 | 0.0 | 8.0 | 0.00 | 0.00 | 0.00 | 63 | 1014.5 |
| 20260905104850 | 30 | 35 | 1.6 | 8.0 | 0.00 | 0.00 | 0.00 | 63 | 1014.5 |
| 20260905103844 | 30 | 15 | 0.0 | 9.7 | 0.00 | 0.00 | 0.00 | 64 | 1014.7 |
| 20260905103347 | 30 | 22 | 3.2 | 9.7 | 0.00 | 0.00 | 0.00 | 63 | 1014.7 |
| 20260905102820 | 30 | 34 | 0.0 | 0.0 | 0.00 | 0.00 | 0.00 | 64 | 1014.7 |
| 20260905102341 | 30 | 34 | 0.0 | 0.0 | 0.00 | 0.00 | 0.00 | 66 | 1014.7 |
| 20260905101929 | 29 | 34 | 0.0 | 0.0 | 0.00 | 0.00 | 0.00 | 66 | 1014.7 |
| 20260905101337 | 30 | 35 | 0.0 | 0.0 | 0.00 | 0.00 | 0.00 | 66 | 1014.6 |
| 20260905100910 | 29 | 35 | 0.0 | 0.0 | 0.00 | 0.00 | 0.00 | 67 | 1014.6 |
| 20260905100410 | 29 | 35 | 0.0 | 0.0 | 0.00 | 0.00 | 0.00 | 66 | 1014.6 |
| 20260905095902 | 29 | 35 | 0.0 | 0.0 | 0.00 | 0.00 | 0.00 | 66 | 1014.7 |
| 20260905094835 | 29 | 35 | 0.0 | 0.0 | 0.00 | 0.00 | 0.00 | 65 | 1014.7 |
| 20260905094326 | 30 | 35 | 0.0 | 0.0 | 0.00 | 0.00 | 0.00 | 66 | 1014.7 |
| 20260905093927 | 29 | 35 | 0.0 | 0.0 | 0.00 | 0.00 | 0.00 | 66 | 1014.7 |
| 20260905093403 | 30 | 35 | 0.0 | 0.0 | 0.00 | 0.00 | 0.00 | 66 | 1014.7 |
| 20260905092839 | 29 | 35 | 0.0 | 0.0 | 0.00 | 0.00 | 0.00 | 66 | 1014.6 |
| 20260905092350 | 30 | 35 | 0.0 | 0.0 | 0.00 | 0.00 | 0.00 | 67 | 1014.6 |
| 20260905091849 | 29 | 35 | 0.0 | 0.0 | 0.00 | 0.00 | 0.00 | 67 | 1014.6 |
| 20260905091409 | 29 | 35 | 0.0 | 0.0 | 0.00 | 0.00 | 0.00 | 68 | 1014.7 |